createdAt,value
2022-09-04T00:02:35.820Z,20.49
2022-09-04T00:05:31.725Z,20.48
2022-09-04T00:08:36.111Z,20.45
2022-09-04T00:11:14.687Z,20.45
2022-09-04T00:13:46.751Z,20.44
2022-09-04T00:16:28.625Z,20.43
2022-09-04T00:19:03.397Z,20.44
2022-09-04T00:21:36.908Z,20.43
2022-09-04T00:24:08.941Z,20.44
2022-09-04T00:26:56.974Z,20.45
2022-09-04T00:29:58.840Z,20.45
2022-09-04T00:32:30.211Z,20.44
2022-09-04T00:35:31.596Z,20.43
2022-09-04T00:38:32.783Z,20.42
2022-09-04T00:41:44.135Z,20.44
2022-09-04T00:44:31.028Z,20.44
2022-09-04T00:47:28.142Z,20.43
2022-09-04T00:50:42.553Z,20.42
2022-09-04T00:53:25.171Z,20.41
2022-09-04T00:56:18.670Z,20.43
2022-09-04T00:59:01.751Z,20.42
2022-09-04T01:01:29.863Z,20.41
2022-09-04T01:04:17.522Z,20.42
2022-09-04T01:07:02.652Z,20.42
2022-09-04T01:10:08.789Z,20.39
2022-09-04T01:12:57.981Z,20.36
2022-09-04T01:15:34.780Z,20.33
2022-09-04T01:18:29.903Z,20.32
2022-09-04T01:21:15.465Z,20.28
2022-09-04T01:24:08.131Z,20.26
2022-09-04T01:26:37.624Z,20.23
2022-09-04T01:29:21.278Z,20.22
2022-09-04T01:31:55.778Z,20.21
2022-09-04T01:34:36.400Z,20.21
2022-09-04T01:37:28.713Z,20.21
2022-09-04T01:40:35.087Z,20.19
2022-09-04T01:43:23.766Z,20.16
2022-09-04T01:46:02.463Z,20.17
2022-09-04T01:48:52.508Z,20.18
2022-09-04T01:51:34.561Z,20.17
2022-09-04T01:54:31.612Z,20.16
2022-09-04T01:57:10.793Z,20.16
2022-09-04T01:59:43.754Z,20.16
2022-09-04T02:02:20.992Z,20.15
2022-09-04T02:04:58.696Z,20.15
2022-09-04T02:07:36.403Z,20.15
2022-09-04T02:10:11.139Z,20.16
2022-09-04T02:13:02.962Z,20.15
2022-09-04T02:15:47.343Z,20.16
2022-09-04T02:18:31.751Z,20.15
2022-09-04T02:21:24.510Z,20.15
2022-09-04T02:24:17.221Z,20.19
2022-09-04T02:27:00.662Z,20.20
2022-09-04T02:29:36.406Z,20.19
2022-09-04T02:32:25.880Z,20.20
2022-09-04T02:34:57.782Z,20.20
2022-09-04T02:37:55.499Z,20.20
2022-09-04T02:40:33.248Z,20.19
2022-09-04T02:42:59.960Z,20.17
2022-09-04T02:46:00.286Z,20.17
2022-09-04T02:48:57.857Z,20.17
2022-09-04T02:51:38.909Z,20.14
2022-09-04T02:54:08.395Z,20.14
2022-09-04T02:56:44.097Z,20.16
2022-09-04T02:59:44.498Z,20.19
2022-09-04T03:02:34.644Z,20.18
2022-09-04T03:05:08.368Z,20.17
2022-09-04T03:07:41.078Z,20.16
2022-09-04T03:10:07.786Z,20.16
2022-09-04T03:12:48.006Z,20.11
2022-09-04T03:15:36.115Z,20.12
2022-09-04T03:18:17.474Z,20.11
2022-09-04T03:21:01.902Z,20.12
2022-09-04T03:23:52.700Z,20.11
2022-09-04T03:26:27.662Z,20.11
2022-09-04T03:29:24.872Z,20.10
2022-09-04T03:32:16.695Z,20.10
2022-09-04T03:35:02.570Z,20.11
2022-09-04T03:38:00.109Z,20.11
2022-09-04T03:40:35.928Z,20.12
2022-09-04T03:43:08.486Z,20.12
2022-09-04T03:46:08.908Z,20.13
2022-09-04T03:48:54.472Z,20.12
2022-09-04T03:51:33.430Z,20.11
2022-09-04T03:54:08.828Z,20.13
2022-09-04T03:57:08.080Z,20.13
2022-09-04T03:59:44.907Z,20.12
2022-09-04T04:02:20.727Z,20.10
2022-09-04T04:05:00.487Z,20.11
2022-09-04T04:07:27.265Z,20.08
2022-09-04T04:09:59.987Z,20.07
2022-09-04T04:12:44.969Z,20.10
2022-09-04T04:15:33.489Z,20.02
2022-09-04T04:18:47.970Z,20.01
2022-09-04T04:21:55.068Z,19.98
2022-09-04T04:24:54.399Z,19.95
2022-09-04T04:27:38.541Z,19.94
2022-09-04T04:30:12.839Z,19.97
2022-09-04T04:32:53.215Z,19.97
2022-09-04T04:35:38.577Z,19.94
2022-09-04T04:38:20.647Z,19.92
2022-09-04T04:40:53.310Z,19.92
2022-09-04T04:43:31.977Z,19.91
2022-09-04T04:46:04.979Z,19.90
2022-09-04T04:49:11.726Z,19.93
2022-09-04T04:51:40.923Z,19.93
2022-09-04T04:54:25.973Z,19.94
2022-09-04T04:57:21.084Z,19.95
2022-09-04T05:00:25.231Z,19.96
2022-09-04T05:03:32.497Z,19.96
2022-09-04T05:05:59.261Z,19.96
2022-09-04T05:08:42.004Z,19.96
2022-09-04T05:12:03.847Z,19.98
2022-09-04T05:14:42.561Z,19.98
2022-09-04T05:17:27.719Z,19.99
2022-09-04T05:20:27.310Z,20.00
2022-09-04T05:23:09.398Z,20.03
2022-09-04T05:25:36.169Z,20.04
2022-09-04T05:28:23.098Z,20.04
2022-09-04T05:30:59.375Z,20.05
2022-09-04T05:34:00.417Z,20.05
2022-09-04T05:36:37.668Z,20.05
2022-09-04T05:39:10.526Z,20.05
2022-09-04T05:42:07.203Z,20.05
2022-09-04T05:44:58.819Z,20.07
2022-09-04T05:47:35.331Z,20.07
2022-09-04T05:50:21.313Z,20.08
2022-09-04T05:53:39.182Z,20.11
2022-09-04T05:56:33.055Z,20.10
2022-09-04T05:59:14.812Z,20.10
2022-09-04T06:02:02.023Z,20.12
2022-09-04T06:04:48.471Z,20.15
2022-09-04T06:07:27.752Z,20.17
2022-09-04T06:10:19.208Z,20.16
2022-09-04T06:12:51.801Z,20.17
2022-09-04T06:15:48.467Z,20.19
2022-09-04T06:19:03.465Z,20.20
2022-09-04T06:21:55.137Z,20.22
2022-09-04T06:24:54.854Z,20.23
2022-09-04T06:27:28.897Z,20.21
2022-09-04T06:30:11.169Z,20.23
2022-09-04T06:32:44.089Z,20.24
2022-09-04T06:35:43.993Z,20.25
2022-09-04T06:38:36.779Z,20.27
2022-09-04T06:41:08.724Z,20.28
2022-09-04T06:44:05.434Z,20.29
2022-09-04T06:47:10.863Z,20.31
2022-09-04T06:50:02.214Z,20.31
2022-09-04T06:52:40.894Z,20.31
2022-09-04T06:55:22.298Z,20.32
2022-09-04T06:58:18.664Z,20.36
2022-09-04T07:00:53.599Z,20.36
2022-09-04T07:03:46.582Z,20.38
2022-09-04T07:06:31.316Z,20.40
2022-09-04T07:09:30.942Z,20.41
2022-09-04T07:12:19.562Z,20.41
2022-09-04T07:14:55.492Z,20.43
2022-09-04T07:17:39.727Z,20.45
2022-09-04T07:20:28.130Z,20.47
2022-09-04T07:23:10.402Z,20.52
2022-09-04T07:26:03.670Z,20.52
2022-09-04T07:28:56.485Z,20.53
2022-09-04T07:31:35.070Z,20.55
2022-09-04T07:34:09.322Z,20.58
2022-09-04T07:37:06.087Z,20.62
2022-09-04T07:39:48.449Z,20.62
2022-09-04T07:42:31.257Z,20.63
2022-09-04T07:45:22.653Z,20.67
2022-09-04T07:48:35.027Z,20.70
2022-09-04T07:51:10.815Z,20.73
2022-09-04T07:54:08.135Z,20.76
2022-09-04T07:57:16.537Z,20.81
2022-09-04T07:59:55.501Z,20.86
2022-09-04T08:02:37.892Z,20.89
2022-09-04T08:05:07.413Z,20.92
2022-09-04T08:07:34.209Z,20.94
2022-09-04T08:10:22.344Z,20.98
2022-09-04T08:13:20.935Z,21.02
2022-09-04T08:16:05.921Z,21.04
2022-09-04T08:18:53.314Z,21.05
2022-09-04T08:21:25.930Z,21.07
2022-09-04T08:24:08.117Z,21.10
2022-09-04T08:27:03.300Z,21.11
2022-09-04T08:29:40.566Z,21.16
2022-09-04T08:32:38.190Z,21.19
2022-09-04T08:35:31.618Z,21.21
2022-09-04T08:38:09.353Z,21.20
2022-09-04T08:41:07.094Z,21.22
2022-09-04T08:43:36.706Z,21.23
2022-09-04T08:46:28.789Z,21.25
2022-09-04T08:49:33.152Z,21.31
2022-09-04T08:52:24.596Z,21.34
2022-09-04T08:55:02.003Z,21.37
2022-09-04T08:57:47.462Z,21.41
2022-09-04T09:00:16.922Z,21.44
2022-09-04T09:03:35.371Z,21.51
2022-09-04T09:06:09.486Z,21.53
2022-09-04T09:08:57.598Z,21.57
2022-09-04T09:11:43.647Z,21.60
2022-09-04T09:14:38.822Z,21.62
2022-09-04T09:17:27.997Z,21.64
2022-09-04T09:20:22.478Z,21.66
2022-09-04T09:23:34.275Z,21.65
2022-09-04T09:26:06.961Z,21.67
2022-09-04T09:28:46.214Z,21.68
2022-09-04T09:31:50.677Z,21.72
2022-09-04T09:35:01.962Z,21.74
2022-09-04T09:38:06.341Z,21.75
2022-09-04T09:40:48.340Z,21.77
2022-09-04T09:43:58.690Z,21.77
2022-09-04T09:46:58.510Z,21.80
2022-09-04T09:49:50.031Z,21.84
2022-09-04T09:52:47.432Z,21.86
2022-09-04T09:55:48.533Z,21.87
2022-09-04T09:58:44.675Z,21.89
2022-09-04T10:01:36.614Z,21.92
2022-09-04T10:04:14.947Z,21.91
2022-09-04T10:06:56.478Z,21.94
2022-09-04T10:09:42.373Z,21.96
2022-09-04T10:12:36.701Z,21.99
2022-09-04T10:15:22.276Z,22.03
2022-09-04T10:18:26.712Z,22.07
2022-09-04T10:21:13.254Z,22.13
2022-09-04T10:23:59.010Z,22.18
2022-09-04T10:26:52.411Z,22.21
2022-09-04T10:29:39.662Z,22.23
2022-09-04T10:32:21.279Z,22.25
2022-09-04T10:35:14.950Z,22.25
2022-09-04T10:38:03.346Z,22.28
2022-09-04T10:40:46.922Z,22.31
2022-09-04T10:43:17.487Z,22.32
2022-09-04T10:45:57.455Z,22.36
2022-09-04T10:48:45.152Z,22.39
2022-09-04T10:51:21.509Z,22.40
2022-09-04T10:53:55.014Z,22.41
2022-09-04T10:56:36.542Z,22.42
2022-09-04T10:59:38.400Z,22.42
2022-09-04T11:02:11.021Z,22.45
2022-09-04T11:05:15.515Z,22.47
2022-09-04T11:08:09.431Z,22.49
2022-09-04T11:11:14.346Z,22.52
2022-09-04T11:14:15.170Z,22.58
2022-09-04T11:17:10.285Z,22.63
2022-09-04T11:20:04.118Z,22.69
2022-09-04T11:22:38.864Z,22.73
2022-09-04T11:25:44.762Z,22.80
2022-09-04T11:28:47.895Z,22.85
2022-09-04T11:31:40.593Z,22.87
2022-09-04T11:34:49.436Z,22.87
2022-09-04T11:37:57.882Z,22.88
2022-09-04T11:40:58.857Z,22.88
2022-09-04T11:43:45.381Z,22.91
2022-09-04T11:46:27.443Z,22.91
2022-09-04T11:49:26.394Z,22.95
2022-09-04T11:52:09.706Z,23.00
2022-09-04T11:54:54.464Z,23.01
2022-09-04T11:57:56.989Z,23.00
2022-09-04T12:00:24.767Z,23.00
2022-09-04T12:03:14.329Z,22.97
2022-09-04T12:05:53.188Z,22.94
2022-09-04T12:08:38.771Z,22.95
2022-09-04T12:11:32.926Z,22.98
2022-09-04T12:14:09.726Z,22.99
2022-09-04T12:16:55.334Z,23.03
2022-09-04T12:19:42.591Z,23.06
2022-09-04T12:22:37.548Z,23.13
2022-09-04T12:25:45.400Z,23.14
2022-09-04T12:28:35.337Z,23.15
2022-09-04T12:31:51.295Z,23.12
2022-09-04T12:34:43.132Z,23.16
2022-09-04T12:37:16.546Z,23.15
2022-09-04T12:39:57.346Z,23.15
2022-09-04T12:43:18.183Z,23.12
2022-09-04T12:46:10.983Z,23.13
2022-09-04T12:49:04.252Z,23.10
2022-09-04T12:51:54.308Z,23.10
2022-09-04T12:54:39.107Z,23.11
2022-09-04T12:57:27.132Z,23.08
2022-09-04T13:00:07.086Z,23.06
2022-09-04T13:02:52.363Z,23.05
2022-09-04T13:05:25.443Z,23.03
2022-09-04T13:08:19.660Z,23.06
2022-09-04T13:11:15.592Z,23.12
2022-09-04T13:13:46.185Z,23.14
2022-09-04T13:16:27.657Z,23.16
2022-09-04T13:19:31.434Z,23.19
2022-09-04T13:22:41.473Z,23.21
2022-09-04T13:25:27.522Z,23.26
2022-09-04T13:28:03.289Z,23.28
2022-09-04T13:30:55.483Z,23.31
2022-09-04T13:33:42.330Z,23.32
2022-09-04T13:36:29.043Z,23.32
2022-09-04T13:39:22.706Z,23.35
2022-09-04T13:42:11.050Z,23.40
2022-09-04T13:45:06.707Z,23.47
2022-09-04T13:47:39.607Z,23.50
2022-09-04T13:50:17.442Z,23.53
2022-09-04T13:52:48.077Z,23.55
2022-09-04T13:55:29.490Z,23.59
2022-09-04T13:58:47.784Z,23.68
2022-09-04T14:01:30.005Z,23.76
2022-09-04T14:04:02.719Z,23.78
2022-09-04T14:06:44.701Z,23.81
2022-09-04T14:09:12.321Z,23.84
2022-09-04T14:11:39.577Z,23.84
2022-09-04T14:14:15.343Z,23.85
2022-09-04T14:16:44.508Z,23.85
2022-09-04T14:19:27.546Z,23.85
2022-09-04T14:22:33.339Z,23.79
2022-09-04T14:27:59.112Z,23.81
2022-09-04T14:30:29.883Z,23.85
2022-09-04T14:32:06.694Z,23.79
2022-09-04T14:33:29.023Z,23.91
2022-09-04T14:36:02.991Z,23.95
2022-09-04T14:38:54.579Z,23.97
2022-09-04T14:41:44.702Z,24.03
2022-09-04T14:44:22.668Z,24.08
2022-09-04T14:47:02.401Z,24.10
2022-09-04T14:49:47.499Z,24.13
2022-09-04T14:52:22.846Z,24.14
2022-09-04T14:55:02.344Z,24.13
2022-09-04T14:57:51.307Z,24.13
2022-09-04T15:00:20.339Z,24.11
2022-09-04T15:03:18.127Z,24.09
2022-09-04T15:05:53.632Z,24.06
2022-09-04T15:08:40.191Z,24.07
2022-09-04T15:11:37.849Z,24.07
2022-09-04T15:14:26.454Z,24.08
2022-09-04T15:17:00.284Z,24.05
2022-09-04T15:20:05.961Z,24.03
2022-09-04T15:22:47.331Z,24.04
2022-09-04T15:25:56.883Z,24.03
2022-09-04T15:28:27.996Z,24.09
2022-09-04T15:31:15.506Z,24.11
2022-09-04T15:33:46.032Z,24.14
2022-09-04T15:36:30.797Z,24.17
2022-09-04T15:39:02.533Z,24.21
2022-09-04T15:41:53.903Z,24.25
2022-09-04T15:44:30.597Z,24.28
2022-09-04T15:47:00.811Z,24.32
2022-09-04T15:49:49.008Z,24.33
2022-09-04T15:52:41.696Z,24.33
2022-09-04T15:55:31.836Z,24.32
2022-09-04T15:58:48.076Z,24.27
2022-09-04T16:01:47.621Z,24.25
2022-09-04T16:04:26.460Z,24.20
2022-09-04T16:07:20.667Z,24.15
2022-09-04T16:09:57.072Z,24.11
2022-09-04T16:12:49.521Z,24.03
2022-09-04T16:15:22.801Z,24.00
2022-09-04T16:17:56.413Z,23.96
2022-09-04T16:21:07.648Z,23.93
2022-09-04T16:23:59.566Z,23.91
2022-09-04T16:26:31.548Z,23.90
2022-09-04T16:29:26.345Z,23.90
2022-09-04T16:31:57.267Z,23.88
2022-09-04T16:34:37.129Z,23.84
2022-09-04T16:37:45.627Z,23.81
2022-09-04T16:40:18.873Z,23.79
2022-09-04T16:42:57.761Z,23.76
2022-09-04T16:45:30.936Z,23.75
2022-09-04T16:48:33.467Z,23.73
2022-09-04T16:51:25.928Z,23.71
2022-09-04T16:54:04.395Z,23.69
2022-09-04T16:56:43.820Z,23.69
2022-09-04T16:59:27.750Z,23.69
2022-09-04T17:02:32.260Z,23.69
2022-09-04T17:05:40.441Z,23.68
2022-09-04T17:08:29.321Z,23.66
2022-09-04T17:10:59.747Z,23.66
2022-09-04T17:13:53.036Z,23.69
2022-09-04T17:16:25.420Z,23.69
2022-09-04T17:18:55.976Z,23.70
2022-09-04T17:26:28.084Z,23.73
2022-09-04T17:29:11.308Z,23.74
2022-09-04T17:29:18.360Z,23.71
2022-09-04T17:30:43.682Z,23.66
2022-09-04T17:40:41.465Z,23.64
2022-09-04T17:40:41.635Z,23.61
2022-09-04T17:40:49.127Z,23.59
2022-09-04T17:43:24.484Z,23.56
2022-09-04T17:46:12.947Z,23.53
2022-09-04T17:48:45.264Z,23.50
2022-09-04T17:51:29.431Z,23.50
2022-09-04T17:54:02.338Z,23.49
2022-09-04T17:56:40.928Z,23.46
2022-09-04T17:59:36.896Z,23.45
2022-09-04T18:02:20.208Z,23.42
2022-09-04T18:04:57.502Z,23.42
2022-09-04T18:08:09.977Z,23.38
2022-09-04T18:10:31.439Z,23.35
2022-09-04T18:13:38.065Z,23.34
2022-09-04T18:16:11.720Z,23.34
2022-09-04T18:18:51.018Z,23.31
2022-09-04T18:21:53.921Z,23.31
2022-09-04T18:24:38.690Z,23.29
2022-09-04T18:27:21.295Z,23.27
2022-09-04T18:33:14.128Z,23.27
2022-09-04T18:37:20.965Z,23.21
2022-09-04T18:37:21.502Z,23.25
2022-09-04T18:39:33.958Z,23.20
2022-09-04T18:50:20.172Z,23.19
2022-09-04T18:50:33.993Z,23.20
2022-09-04T18:50:52.395Z,23.22
2022-09-04T18:54:00.022Z,23.15
2022-09-04T18:56:36.193Z,23.11
2022-09-04T18:59:22.618Z,23.09
2022-09-04T19:02:29.319Z,23.08
2022-09-04T19:05:14.628Z,23.07
2022-09-04T19:07:44.607Z,23.06
2022-09-04T19:10:23.317Z,23.07
2022-09-04T19:13:02.046Z,23.05
2022-09-04T19:15:50.161Z,23.05
2022-09-04T19:18:27.254Z,23.02
2022-09-04T19:21:15.699Z,22.99
2022-09-04T19:23:45.841Z,22.96
2022-09-04T19:26:20.353Z,22.96
2022-09-04T19:28:54.148Z,22.96
2022-09-04T19:31:35.281Z,22.94
2022-09-04T19:34:40.683Z,22.93
2022-09-04T19:41:35.476Z,22.93
2022-09-04T19:45:56.493Z,22.92
2022-09-04T19:46:17.047Z,22.90
2022-09-04T19:47:36.771Z,22.88
2022-09-04T19:53:19.979Z,22.87
2022-09-04T19:53:41.122Z,22.86
2022-09-04T19:56:28.200Z,22.83
2022-09-04T19:59:35.935Z,22.82
2022-09-04T20:02:38.580Z,22.80
2022-09-04T20:05:24.933Z,22.80
2022-09-04T20:08:20.149Z,22.77
2022-09-04T20:11:35.944Z,22.78
2022-09-04T20:14:21.987Z,22.75
2022-09-04T20:17:24.462Z,22.75
2022-09-04T20:20:03.828Z,22.74
2022-09-04T20:22:57.357Z,22.73
2022-09-04T20:25:53.889Z,22.72
2022-09-04T20:28:36.578Z,22.71
2022-09-04T20:31:35.321Z,22.71
2022-09-04T20:34:16.749Z,22.67
2022-09-04T20:36:49.433Z,22.65
2022-09-04T20:39:36.282Z,22.61
2022-09-04T20:42:12.967Z,22.61
2022-09-04T20:45:52.712Z,22.64
2022-09-04T20:52:41.853Z,22.64
2022-09-04T20:53:05.873Z,22.63
2022-09-04T20:53:45.985Z,22.63
2022-09-04T20:57:00.973Z,22.63
2022-09-04T21:03:12.464Z,22.60
2022-09-04T21:03:17.386Z,22.62
2022-09-04T21:05:42.638Z,22.63
2022-09-04T21:08:27.206Z,22.61
2022-09-04T21:11:41.704Z,22.61
2022-09-04T21:14:31.993Z,22.61
2022-09-04T21:17:35.806Z,22.60
2022-09-04T21:20:19.115Z,22.60
2022-09-04T21:23:07.788Z,22.61
2022-09-04T21:26:08.615Z,22.61
2022-09-04T21:29:10.713Z,22.59
2022-09-04T21:32:10.008Z,22.59
2022-09-04T21:34:44.022Z,22.56
2022-09-04T21:37:28.429Z,22.57
2022-09-04T21:40:31.033Z,22.56
2022-09-04T21:43:36.357Z,22.55
2022-09-04T21:46:47.289Z,22.56
2022-09-04T21:49:32.800Z,22.56
2022-09-04T21:52:30.463Z,22.55
2022-09-04T22:01:02.033Z,22.54
2022-09-04T22:02:32.091Z,22.54
2022-09-04T22:02:40.141Z,22.54
2022-09-04T22:04:39.219Z,22.53
2022-09-04T22:11:31.384Z,22.53
2022-09-04T22:13:39.969Z,22.51
2022-09-04T22:13:48.211Z,22.51
2022-09-04T22:16:29.452Z,22.50
2022-09-04T22:19:21.163Z,22.49
2022-09-04T22:22:25.598Z,22.47
2022-09-04T22:25:16.119Z,22.46
2022-09-04T22:28:16.018Z,22.47
2022-09-04T22:31:17.005Z,22.44
2022-09-04T22:34:15.897Z,22.42
2022-09-04T22:37:05.091Z,22.39
2022-09-04T22:39:50.680Z,22.38
2022-09-04T22:42:52.933Z,22.36
2022-09-04T22:45:53.375Z,22.35
2022-09-04T22:48:47.225Z,22.32
2022-09-04T22:51:55.443Z,22.28
2022-09-04T22:54:38.024Z,22.26
2022-09-04T22:57:12.697Z,22.25
2022-09-04T22:59:42.344Z,22.24
2022-09-04T23:02:20.250Z,22.21
2022-09-04T23:05:20.515Z,22.20
2022-09-04T23:13:42.133Z,22.15
2022-09-04T23:13:50.172Z,22.15
2022-09-04T23:14:06.389Z,22.14
2022-09-04T23:16:46.705Z,22.14
2022-09-04T23:22:46.108Z,22.12
2022-09-04T23:26:38.383Z,22.13
2022-09-04T23:26:47.563Z,22.07
2022-09-04T23:29:22.313Z,22.06
2022-09-04T23:32:09.927Z,22.04
2022-09-04T23:35:13.697Z,22.03
2022-09-04T23:38:00.907Z,22.03
2022-09-04T23:40:43.081Z,22.01
2022-09-04T23:43:38.094Z,22.01
2022-09-04T23:46:40.929Z,21.99
2022-09-04T23:49:38.174Z,21.98
2022-09-04T23:53:06.705Z,21.98
2022-09-04T23:55:49.767Z,21.97
2022-09-04T23:58:54.136Z,21.94
